^^
Your Local Weather - Clay, NY Station Historical Data
Daily Summary for March 3, 2017 Units:  English    Metric   Both
« Previous Day
Next Day »
Daily Weekly Monthly Yearly Custom
  High: Low: Average:
Temperature: 29.4 °F 14.6 °F 20.9 °F
Dew Point: 20.7 °F 0.9 °F 9.3 °F
Humidity: 83% 45% 61%
Wind Speed: 11.0mph 0.0mph 4.5mph
Wind Gust: 19.0mph - -
Wind- - WNW
Pressure: 30.47 in 30.13 in -
Precipitation: 0.00 in    
Historical Graphs
 
 
Tabular Data for March 3, 2017
Time Temperature Dew Point Pressure Wind Wind Speed Wind Gust Humidity Rainfall Rate (Hourly) solar
00:02 22.8 °F 12.1 °F 30.13 in NNW 3.0 mph 8.0 mph 63% 0.00 in 0 W/m2
00:08 22.6 °F 11.9 °F 30.13 in NW 3.0 mph 8.0 mph 63% 0.00 in 0 W/m2
00:13 22.6 °F 11.5 °F 30.13 in NW 4.0 mph 8.0 mph 62% 0.00 in 0 W/m2
00:19 22.4 °F 11.3 °F 30.14 in NW 5.0 mph 7.0 mph 62% 0.00 in 0 W/m2
00:26 22.2 °F 11.1 °F 30.14 in NNW 4.0 mph 9.0 mph 62% 0.00 in 0 W/m2
00:32 22.0 °F 11.3 °F 30.14 in WNW 3.0 mph 3.0 mph 63% 0.00 in 0 W/m2
00:38 21.7 °F 11.0 °F 30.14 in North 2.0 mph 3.0 mph 63% 0.00 in 0 W/m2
00:43 21.6 °F 10.9 °F 30.14 in NW 3.0 mph 4.0 mph 63% 0.00 in 0 W/m2
00:50 21.5 °F 10.8 °F 30.14 in NNW 3.0 mph 7.0 mph 63% 0.00 in 0 W/m2
00:55 21.4 °F 11.1 °F 30.14 in NW 4.0 mph 7.0 mph 64% 0.00 in 0 W/m2
01:02 21.3 °F 11.0 °F 30.14 in NNW 4.0 mph 5.0 mph 64% 0.00 in 0 W/m2
01:08 21.1 °F 11.2 °F 30.14 in NNW 3.0 mph 5.0 mph 65% 0.00 in 0 W/m2
01:13 20.9 °F 11.0 °F 30.14 in NW 2.0 mph 4.0 mph 65% 0.00 in 0 W/m2
01:20 20.8 °F 10.9 °F 30.14 in NNW 2.0 mph 3.0 mph 65% 0.00 in 0 W/m2
01:25 20.6 °F 11.0 °F 30.14 in NW 2.0 mph 3.0 mph 66% 0.00 in 0 W/m2
01:32 20.6 °F 11.0 °F 30.15 in NW 2.0 mph 4.0 mph 66% 0.00 in 0 W/m2
01:38 20.5 °F 10.9 °F 30.15 in WNW 2.0 mph 5.0 mph 66% 0.00 in 0 W/m2
01:44 20.5 °F 10.9 °F 30.15 in WNW 2.0 mph 3.0 mph 66% 0.00 in 0 W/m2
01:50 20.5 °F 10.9 °F 30.15 in NW 2.0 mph 2.0 mph 66% 0.00 in 0 W/m2
01:55 20.5 °F 10.9 °F 30.15 in NNW 2.0 mph 6.0 mph 66% 0.00 in 0 W/m2
02:02 20.4 °F 10.8 °F 30.15 in WNW 2.0 mph 2.0 mph 66% 0.00 in 0 W/m2
02:08 20.5 °F 10.9 °F 30.15 in West 3.0 mph 4.0 mph 66% 0.00 in 0 W/m2
02:14 20.6 °F 11.0 °F 30.15 in NW 3.0 mph 4.0 mph 66% 0.00 in 0 W/m2
02:20 20.5 °F 11.3 °F 30.15 in WNW 3.0 mph 3.0 mph 67% 0.00 in 0 W/m2
02:25 20.6 °F 11.4 °F 30.15 in WNW 2.0 mph 3.0 mph 67% 0.00 in 0 W/m2
02:32 20.6 °F 11.7 °F 30.15 in WNW 2.0 mph 4.0 mph 68% 0.00 in 0 W/m2
02:38 20.8 °F 11.6 °F 30.15 in NW 3.0 mph 5.0 mph 67% 0.00 in 0 W/m2
02:44 20.9 °F 11.3 °F 30.15 in WNW 3.0 mph 3.0 mph 66% 0.00 in 0 W/m2
02:49 20.9 °F 11.0 °F 30.15 in WNW 3.0 mph 3.0 mph 65% 0.00 in 0 W/m2
02:56 20.8 °F 10.9 °F 30.15 in West 3.0 mph 7.0 mph 65% 0.00 in 0 W/m2
03:02 20.7 °F 10.8 °F 30.15 in NW 3.0 mph 3.0 mph 65% 0.00 in 0 W/m2
03:08 20.6 °F 10.7 °F 30.15 in WNW 2.0 mph 5.0 mph 65% 0.00 in 0 W/m2
03:13 20.6 °F 10.3 °F 30.15 in NW 2.0 mph 4.0 mph 64% 0.00 in 0 W/m2
03:19 20.5 °F 10.2 °F 30.15 in WNW 2.0 mph 3.0 mph 64% 0.00 in 0 W/m2
03:26 20.3 °F 10.1 °F 30.15 in WNW 3.0 mph 5.0 mph 64% 0.00 in 0 W/m2
03:32 20.2 °F 10.0 °F 30.15 in WNW 3.0 mph 3.0 mph 64% 0.00 in 0 W/m2
03:38 20.1 °F 9.9 °F 30.16 in WNW 2.0 mph 3.0 mph 64% 0.00 in 0 W/m2
03:44 20.1 °F 10.2 °F 30.16 in WNW 2.0 mph 4.0 mph 65% 0.00 in 0 W/m2
03:50 20.0 °F 10.1 °F 30.16 in WNW 2.0 mph 2.0 mph 65% 0.00 in 0 W/m2
03:55 20.0 °F 10.1 °F 30.16 in NNW 2.0 mph 3.0 mph 65% 0.00 in 0 W/m2
04:02 20.0 °F 10.5 °F 30.16 in NNW 2.0 mph 2.0 mph 66% 0.00 in 0 W/m2
04:08 19.9 °F 10.4 °F 30.16 in WNW 2.0 mph 4.0 mph 66% 0.00 in 0 W/m2
04:14 19.9 °F 10.7 °F 30.17 in WNW 1.0 mph 2.0 mph 67% 0.00 in 0 W/m2
04:20 19.9 °F 10.7 °F 30.17 in WNW 1.0 mph 1.0 mph 67% 0.00 in 0 W/m2
04:25 19.9 °F 11.0 °F 30.17 in Calm   2.0 mph 68% 0.00 in 0 W/m2
04:32 19.9 °F 11.0 °F 30.17 in NW 1.0 mph 2.0 mph 68% 0.00 in 0 W/m2
04:40 19.8 °F 10.6 °F 30.17 in NW 1.0 mph 4.0 mph 67% 0.00 in 0 W/m2
04:45 19.6 °F 10.1 °F 30.17 in NNW 2.0 mph 4.0 mph 66% 0.00 in 0 W/m2
04:52 19.4 °F 10.2 °F 30.17 in NW 2.0 mph 3.0 mph 67% 0.00 in 0 W/m2
04:58 19.2 °F 10.0 °F 30.18 in NW 2.0 mph 3.0 mph 67% 0.00 in 0 W/m2
05:03 19.0 °F 9.8 °F 30.18 in NW 1.0 mph 1.0 mph 67% 0.00 in 0 W/m2
05:09 18.8 °F 9.6 °F 30.18 in Calm   1.0 mph 67% 0.00 in 0 W/m2
05:16 18.5 °F 9.4 °F 30.18 in NW 1.0 mph 1.0 mph 67% 0.00 in 0 W/m2
05:22 18.4 °F 9.6 °F 30.18 in Calm   1.0 mph 68% 0.00 in 0 W/m2
05:28 18.2 °F 9.4 °F 30.19 in Calm   1.0 mph 68% 0.00 in 0 W/m2
05:33 18.1 °F 9.6 °F 30.19 in Calm     69% 0.00 in 0 W/m2
05:40 17.9 °F 9.8 °F 30.19 in Calm     70% 0.00 in 0 W/m2
05:45 17.7 °F 9.6 °F 30.19 in NW 1.0 mph 2.0 mph 70% 0.00 in 0 W/m2
05:52 17.5 °F 9.7 °F 30.19 in NW 1.0 mph 1.0 mph 71% 0.00 in 0 W/m2
05:58 17.3 °F 9.5 °F 30.19 in Calm   1.0 mph 71% 0.00 in 0 W/m2
06:03 17.1 °F 9.6 °F 30.19 in Calm     72% 0.00 in 0 W/m2
06:10 17.0 °F 9.5 °F 30.19 in Calm     72% 0.00 in 0 W/m2
06:15 16.8 °F 9.3 °F 30.19 in Calm     72% 0.00 in 0 W/m2
06:22 16.3 °F 9.2 °F 30.19 in Calm     73% 0.00 in 0 W/m2
06:28 16.0 °F 9.2 °F 30.19 in Calm     74% 0.00 in 0 W/m2
06:33 15.7 °F 8.9 °F 30.19 in Calm     74% 0.00 in 0 W/m2
06:39 15.6 °F 9.1 °F 30.19 in Calm     75% 0.00 in 5 W/m2
06:46 15.4 °F 8.9 °F 30.19 in Calm     75% 0.00 in 9 W/m2
06:52 15.1 °F 8.6 °F 30.19 in Calm     75% 0.00 in 11 W/m2
06:58 14.9 °F 8.7 °F 30.20 in Calm     76% 0.00 in 14 W/m2
07:03 14.8 °F 8.9 °F 30.20 in Calm     77% 0.00 in 16 W/m2
07:09 14.7 °F 8.8 °F 30.20 in Calm     77% 0.00 in 19 W/m2
07:16 14.6 °F 8.7 °F 30.20 in Calm     77% 0.00 in 25 W/m2
07:22 15.0 °F 9.7 °F 30.21 in Calm     79% 0.00 in 26 W/m2
07:28 15.3 °F 10.2 °F 30.22 in Calm     80% 0.00 in 26 W/m2
07:33 15.8 °F 10.7 °F 30.22 in Calm     80% 0.00 in 60 W/m2
07:40 16.8 °F 11.4 °F 30.22 in Calm     79% 0.00 in 74 W/m2
07:46 17.9 °F 11.9 °F 30.22 in Calm     77% 0.00 in 102 W/m2
07:52 18.8 °F 11.6 °F 30.22 in Calm     73% 0.00 in 171 W/m2
07:58 19.4 °F 10.9 °F 30.22 in West 1.0 mph 3.0 mph 69% 0.00 in 151 W/m2
08:03 19.8 °F 10.9 °F 30.22 in West 1.0 mph 2.0 mph 68% 0.00 in 206 W/m2
08:09 20.2 °F 11.3 °F 30.22 in West 1.0 mph 1.0 mph 68% 0.00 in 188 W/m2
08:16 20.3 °F 10.7 °F 30.22 in West 1.0 mph 3.0 mph 66% 0.00 in 156 W/m2
08:22 20.7 °F 10.8 °F 30.22 in West 1.0 mph 2.0 mph 65% 0.00 in 158 W/m2
08:28 21.1 °F 11.2 °F 30.22 in West 1.0 mph 3.0 mph 65% 0.00 in 193 W/m2
08:33 21.4 °F 11.1 °F 30.22 in WSW 1.0 mph 3.0 mph 64% 0.00 in 181 W/m2
08:39 21.7 °F 11.7 °F 30.22 in WSW 1.0 mph 1.0 mph 65% 0.00 in 237 W/m2
08:46 22.9 °F 11.8 °F 30.22 in WSW 1.0 mph 3.0 mph 62% 0.00 in 322 W/m2
08:52 22.7 °F 11.6 °F 30.22 in Calm   1.0 mph 62% 0.00 in 352 W/m2
08:58 23.3 °F 13.3 °F 30.22 in SW 1.0 mph 2.0 mph 65% 0.00 in 388 W/m2
09:04 22.8 °F 11.7 °F 30.22 in SSW 2.0 mph 3.0 mph 62% 0.00 in 454 W/m2
09:09 22.8 °F 11.7 °F 30.22 in WSW 3.0 mph 3.0 mph 62% 0.00 in 524 W/m2
09:16 23.8 °F 12.3 °F 30.22 in WSW 2.0 mph 5.0 mph 61% 0.00 in 269 W/m2
09:22 22.9 °F 11.4 °F 30.22 in WSW 2.0 mph 7.0 mph 61% 0.00 in 396 W/m2
09:28 23.6 °F 12.5 °F 30.22 in WSW 3.0 mph 7.0 mph 62% 0.00 in 281 W/m2
09:33 24.3 °F 13.1 °F 30.22 in WNW 3.0 mph 5.0 mph 62% 0.00 in 587 W/m2
09:40 24.5 °F 12.2 °F 30.22 in WNW 3.0 mph 3.0 mph 59% 0.00 in 163 W/m2
09:45 23.6 °F 12.1 °F 30.21 in West 3.0 mph 6.0 mph 61% 0.00 in 621 W/m2
09:52 24.8 °F 13.2 °F 30.21 in SSW 3.0 mph 7.0 mph 61% 0.00 in 543 W/m2
09:58 25.4 °F 12.7 °F 30.21 in West 4.0 mph 9.0 mph 58% 0.00 in 541 W/m2
10:04 25.0 °F 12.3 °F 30.21 in WSW 4.0 mph 13.0 mph 58% 0.00 in 462 W/m2
10:09 25.4 °F 12.7 °F 30.21 in SW 3.0 mph 7.0 mph 58% 0.00 in 294 W/m2
10:15 26.1 °F 14.5 °F 30.21 in SW 4.0 mph 7.0 mph 61% 0.00 in 796 W/m2
10:22 26.0 °F 13.6 °F 30.21 in SW 4.0 mph 5.0 mph 59% 0.00 in 274 W/m2
10:28 25.6 °F 12.5 °F 30.21 in SW 4.0 mph 7.0 mph 57% 0.00 in 294 W/m2
10:33 26.0 °F 15.1 °F 30.20 in WSW 4.0 mph 4.0 mph 63% 0.00 in 791 W/m2
10:39 26.6 °F 13.8 °F 30.21 in South 4.0 mph 7.0 mph 58% 0.00 in 589 W/m2
10:46 26.9 °F 15.2 °F 30.21 in SSW 5.0 mph 8.0 mph 61% 0.00 in 807 W/m2
10:52 26.7 °F 13.5 °F 30.20 in SW 5.0 mph 10.0 mph 57% 0.00 in 763 W/m2
10:58 27.0 °F 14.6 °F 30.20 in West 4.0 mph 10.0 mph 59% 0.00 in 165 W/m2
11:03 27.2 °F 15.9 °F 30.20 in SSW 4.0 mph 7.0 mph 62% 0.00 in 663 W/m2
11:09 27.0 °F 14.6 °F 30.19 in SSE 5.0 mph 8.0 mph 59% 0.00 in 722 W/m2
11:16 26.8 °F 14.4 °F 30.19 in WNW 5.0 mph 8.0 mph 59% 0.00 in 306 W/m2
11:22 26.8 °F 14.4 °F 30.19 in WSW 4.0 mph 8.0 mph 59% 0.00 in 325 W/m2
11:28 28.0 °F 16.6 °F 30.19 in West 3.0 mph 8.0 mph 62% 0.00 in 302 W/m2
11:33 27.6 °F 15.5 °F 30.19 in SW 3.0 mph 5.0 mph 60% 0.00 in 341 W/m2
11:40 27.5 °F 15.4 °F 30.18 in SSE 3.0 mph 6.0 mph 60% 0.00 in 350 W/m2
11:45 28.1 °F 17.1 °F 30.17 in SW 4.0 mph 6.0 mph 63% 0.00 in 835 W/m2
11:52 29.4 °F 16.8 °F 30.17 in South 4.0 mph 4.0 mph 59% 0.00 in 816 W/m2
11:58 29.2 °F 15.8 °F 30.17 in SSW 4.0 mph 7.0 mph 57% 0.00 in 253 W/m2
12:04 28.7 °F 14.6 °F 30.17 in West 5.0 mph 5.0 mph 55% 0.00 in 167 W/m2
12:10 27.9 °F 14.2 °F 30.18 in West 5.0 mph 5.0 mph 56% 0.00 in 44 W/m2
12:15 26.7 °F 18.6 °F 30.19 in WNW 5.0 mph 8.0 mph 71% 0.00 in 39 W/m2
12:22 24.7 °F 19.1 °F 30.19 in SW 5.0 mph 7.0 mph 79% 0.00 in 204 W/m2
12:28 24.5 °F 20.1 °F 30.19 in West 3.0 mph 7.0 mph 83% 0.00 in 355 W/m2
12:33 25.4 °F 20.7 °F 30.19 in NW 3.0 mph 6.0 mph 82% 0.00 in 628 W/m2
12:39 26.6 °F 18.8 °F 30.19 in WNW 6.0 mph 16.0 mph 72% 0.00 in 608 W/m2
12:46 28.2 °F 20.3 °F 30.19 in WNW 6.0 mph 16.0 mph 72% 0.00 in 949 W/m2
12:52 28.8 °F 19.6 °F 30.19 in WNW 6.0 mph 10.0 mph 68% 0.00 in 844 W/m2
12:58 27.9 °F 17.6 °F 30.19 in WNW 7.0 mph 10.0 mph 65% 0.00 in 199 W/m2
13:03 27.1 °F 16.5 °F 30.19 in WNW 7.0 mph 8.0 mph 64% 0.00 in 193 W/m2
13:09 27.1 °F 17.2 °F 30.19 in WNW 7.0 mph 9.0 mph 66% 0.00 in 186 W/m2
13:16 26.3 °F 18.5 °F 30.20 in NNW 7.0 mph 13.0 mph 72% 0.00 in 265 W/m2
13:22 25.9 °F 18.4 °F 30.20 in WNW 7.0 mph 12.0 mph 73% 0.00 in 118 W/m2
13:28 25.5 °F 18.4 °F 30.20 in NW 7.0 mph 12.0 mph 74% 0.00 in 336 W/m2
13:34 26.2 °F 16.7 °F 30.20 in NW 7.0 mph 10.0 mph 67% 0.00 in 176 W/m2
13:40 26.0 °F 14.4 °F 30.20 in NW 8.0 mph 11.0 mph 61% 0.00 in 192 W/m2
13:45 26.0 °F 12.8 °F 30.21 in NW 9.0 mph 13.0 mph 57% 0.00 in 438 W/m2
13:52 26.5 °F 12.1 °F 30.21 in NNW 8.0 mph 9.0 mph 54% 0.00 in 733 W/m2
13:58 26.8 °F 9.7 °F 30.22 in WNW 8.0 mph 9.0 mph 48% 0.00 in 751 W/m2
14:04 27.7 °F 11.5 °F 30.22 in NW 8.0 mph 8.0 mph 50% 0.00 in 645 W/m2
14:10 26.1 °F 10.9 °F 30.22 in NW 9.0 mph 9.0 mph 52% 0.00 in 237 W/m2
14:15 26.0 °F 8.0 °F 30.23 in NW 10.0 mph 15.0 mph 46% 0.00 in 580 W/m2
14:22 24.8 °F 7.4 °F 30.24 in WNW 11.0 mph 11.0 mph 47% 0.00 in 118 W/m2
14:28 25.5 °F 10.3 °F 30.24 in WNW 9.0 mph 11.0 mph 52% 0.00 in 633 W/m2
14:34 25.8 °F 8.8 °F 30.24 in West 8.0 mph 11.0 mph 48% 0.00 in 635 W/m2
14:45 24.3 °F 9.2 °F 30.25 in WNW 9.0 mph 13.0 mph 52% 0.00 in 162 W/m2
14:52 23.7 °F 9.9 °F 30.25 in NW 9.0 mph 9.0 mph 55% 0.00 in 125 W/m2
14:58 23.5 °F 9.7 °F 30.25 in NW 9.0 mph 9.0 mph 55% 0.00 in 223 W/m2
15:04 23.5 °F 10.9 °F 30.26 in WNW 9.0 mph 13.0 mph 58% 0.00 in 130 W/m2
15:09 22.9 °F 11.4 °F 30.26 in WNW 10.0 mph 12.0 mph 61% 0.00 in 93 W/m2
15:15 22.4 °F 12.1 °F 30.27 in WNW 8.0 mph 13.0 mph 64% 0.00 in 116 W/m2
15:22 22.0 °F 11.0 °F 30.27 in NW 10.0 mph 13.0 mph 62% 0.00 in 137 W/m2
15:28 22.2 °F 11.9 °F 30.28 in WNW 8.0 mph 13.0 mph 64% 0.00 in 116 W/m2
15:33 22.4 °F 10.2 °F 30.28 in WNW 7.0 mph 15.0 mph 59% 0.00 in 148 W/m2
15:39 23.0 °F 8.0 °F 30.28 in WSW 9.0 mph 9.0 mph 52% 0.00 in 98 W/m2
15:46 22.9 °F 7.4 °F 30.29 in WNW 8.0 mph 10.0 mph 51% 0.00 in 257 W/m2
15:52 22.6 °F 8.0 °F 30.30 in NW 8.0 mph 15.0 mph 53% 0.00 in 132 W/m2
15:58 23.3 °F 6.0 °F 30.30 in WNW 7.0 mph 15.0 mph 47% 0.00 in 468 W/m2
16:03 23.5 °F 6.2 °F 30.30 in WNW 8.0 mph 16.0 mph 47% 0.00 in 297 W/m2
16:09 23.3 °F 6.0 °F 30.31 in WNW 9.0 mph 9.0 mph 47% 0.00 in 388 W/m2
16:15 23.3 °F 6.9 °F 30.31 in WNW 8.0 mph 11.0 mph 49% 0.00 in 255 W/m2
16:18 23.0 °F 6.2 °F 30.31 in WNW 8.0 mph 11.0 mph 48% 0.00 in 76 W/m2
16:24 21.7 °F 7.6 °F 30.31 in WNW 9.0 mph 15.0 mph 54% 0.00 in 125 W/m2
16:30 21.4 °F 6.5 °F 30.32 in NW 8.0 mph 9.0 mph 52% 0.00 in 70 W/m2
16:35 21.4 °F 6.5 °F 30.33 in NW 6.0 mph 9.0 mph 52% 0.00 in 86 W/m2
16:42 21.2 °F 3.6 °F 30.32 in West 7.0 mph 11.0 mph 46% 0.00 in 77 W/m2
16:48 21.2 °F 3.6 °F 30.33 in WNW 9.0 mph 11.0 mph 46% 0.00 in 74 W/m2
16:54 21.0 °F 3.4 °F 30.33 in WNW 8.0 mph 10.0 mph 46% 0.00 in 60 W/m2
17:00 20.5 °F 2.5 °F 30.34 in West 9.0 mph 19.0 mph 45% 0.00 in 40 W/m2
17:06 20.2 °F 2.7 °F 30.35 in West 10.0 mph 19.0 mph 46% 0.00 in 62 W/m2
17:12 20.0 °F 3.0 °F 30.35 in NW 10.0 mph 11.0 mph 47% 0.00 in 28 W/m2
17:18 19.8 °F 2.8 °F 30.35 in WNW 9.0 mph 13.0 mph 47% 0.00 in 28 W/m2
17:23 19.7 °F 2.2 °F 30.36 in WNW 9.0 mph 13.0 mph 46% 0.00 in 21 W/m2
17:29 19.4 °F 2.4 °F 30.36 in WNW 9.0 mph 9.0 mph 47% 0.00 in 18 W/m2
17:36 19.3 °F 1.9 °F 30.38 in WNW 9.0 mph 11.0 mph 46% 0.00 in 14 W/m2
17:42 19.2 °F 2.2 °F 30.37 in WNW 10.0 mph 10.0 mph 47% 0.00 in 11 W/m2
17:48 19.1 °F 3.0 °F 30.38 in NW 9.0 mph 10.0 mph 49% 0.00 in 7 W/m2
17:54 19.2 °F 3.1 °F 30.38 in WNW 8.0 mph 11.0 mph 49% 0.00 in 0 W/m2
17:59 19.3 °F 3.2 °F 30.38 in WNW 8.0 mph 8.0 mph 49% 0.00 in 0 W/m2
18:05 19.3 °F 2.8 °F 30.38 in West 8.0 mph 10.0 mph 48% 0.00 in 0 W/m2
18:12 19.2 °F 2.7 °F 30.38 in WNW 8.0 mph 8.0 mph 48% 0.00 in 0 W/m2
18:18 19.1 °F 2.1 °F 30.38 in WNW 6.0 mph 8.0 mph 47% 0.00 in 0 W/m2
18:23 19.1 °F 2.1 °F 30.39 in NNW 7.0 mph 10.0 mph 47% 0.00 in 0 W/m2
18:30 19.1 °F 1.7 °F 30.39 in WNW 7.0 mph 7.0 mph 46% 0.00 in 0 W/m2
18:35 19.1 °F 2.1 °F 30.39 in WNW 7.0 mph 7.0 mph 47% 0.00 in 0 W/m2
18:42 19.1 °F 2.1 °F 30.40 in WNW 7.0 mph 9.0 mph 47% 0.00 in 0 W/m2
18:49 19.0 °F 3.4 °F 30.40 in NW 6.0 mph 6.0 mph 50% 0.00 in 0 W/m2
18:55 19.0 °F 4.2 °F 30.40 in WNW 5.0 mph 6.0 mph 52% 0.00 in 0 W/m2
19:02 18.7 °F 5.2 °F 30.41 in NW 6.0 mph 6.0 mph 55% 0.00 in 0 W/m2
19:08 18.7 °F 5.2 °F 30.41 in WNW 5.0 mph 8.0 mph 55% 0.00 in 0 W/m2
19:14 18.7 °F 5.2 °F 30.41 in NW 7.0 mph 15.0 mph 55% 0.00 in 0 W/m2
19:20 18.4 °F 5.3 °F 30.41 in NW 7.0 mph 7.0 mph 56% 0.00 in 0 W/m2
19:25 18.4 °F 4.9 °F 30.41 in NNW 7.0 mph 8.0 mph 55% 0.00 in 0 W/m2
19:32 18.3 °F 4.8 °F 30.41 in NNW 5.0 mph 6.0 mph 55% 0.00 in 0 W/m2
19:38 18.1 °F 3.8 °F 30.41 in NW 6.0 mph 13.0 mph 53% 0.00 in 0 W/m2
19:44 18.2 °F 3.9 °F 30.41 in WNW 7.0 mph 9.0 mph 53% 0.00 in 0 W/m2
19:50 18.2 °F 3.5 °F 30.42 in WNW 6.0 mph 7.0 mph 52% 0.00 in 0 W/m2
19:55 18.2 °F 4.3 °F 30.42 in NNW 6.0 mph 11.0 mph 54% 0.00 in 0 W/m2
20:02 17.7 °F 8.6 °F 30.42 in NNW 6.0 mph 12.0 mph 67% 0.00 in 0 W/m2
20:08 17.2 °F 9.4 °F 30.42 in NNW 6.0 mph 12.0 mph 71% 0.00 in 0 W/m2
20:13 17.2 °F 9.1 °F 30.42 in NW 5.0 mph 15.0 mph 70% 0.00 in 0 W/m2
20:19 17.0 °F 9.5 °F 30.43 in WNW 6.0 mph 6.0 mph 72% 0.00 in 0 W/m2
20:26 16.8 °F 9.6 °F 30.43 in NW 6.0 mph 6.0 mph 73% 0.00 in 0 W/m2
20:32 16.9 °F 8.8 °F 30.43 in WNW 5.0 mph 6.0 mph 70% 0.00 in 0 W/m2
20:38 17.3 °F 7.5 °F 30.44 in West 6.0 mph 6.0 mph 65% 0.00 in 0 W/m2
20:43 17.5 °F 6.3 °F 30.44 in NW 6.0 mph 9.0 mph 61% 0.00 in 0 W/m2
20:49 17.3 °F 6.1 °F 30.44 in NNW 7.0 mph 7.0 mph 61% 0.00 in 0 W/m2
20:56 17.0 °F 6.6 °F 30.44 in NW 7.0 mph 9.0 mph 63% 0.00 in 0 W/m2
21:02 17.2 °F 6.0 °F 30.44 in NW 7.0 mph 9.0 mph 61% 0.00 in 0 W/m2
21:08 17.4 °F 5.9 °F 30.44 in WNW 6.0 mph 9.0 mph 60% 0.00 in 0 W/m2
21:14 17.4 °F 5.1 °F 30.45 in NW 6.0 mph 10.0 mph 58% 0.00 in 0 W/m2
21:19 17.4 °F 5.1 °F 30.45 in NNW 7.0 mph 7.0 mph 58% 0.00 in 0 W/m2
21:26 17.3 °F 4.3 °F 30.45 in WNW 7.0 mph 7.0 mph 56% 0.00 in 0 W/m2
21:32 17.3 °F 3.9 °F 30.45 in NW 8.0 mph 9.0 mph 55% 0.00 in 0 W/m2
21:38 17.2 °F 4.2 °F 30.46 in WNW 7.0 mph 9.0 mph 56% 0.00 in 0 W/m2
21:46 17.2 °F 4.6 °F 30.46 in NNW 5.0 mph 5.0 mph 57% 0.00 in 0 W/m2
21:52 17.2 °F 4.2 °F 30.46 in NW 5.0 mph 10.0 mph 56% 0.00 in 0 W/m2
21:58 17.0 °F 3.6 °F 30.46 in NW 7.0 mph 8.0 mph 55% 0.00 in 0 W/m2
22:03 17.0 °F 4.0 °F 30.46 in NNW 8.0 mph 8.0 mph 56% 0.00 in 0 W/m2
22:09 16.9 °F 3.5 °F 30.47 in NW 7.0 mph 7.0 mph 55% 0.00 in 0 W/m2
22:16 16.9 °F 2.7 °F 30.47 in WNW 6.0 mph 7.0 mph 53% 0.00 in 0 W/m2
22:22 16.7 °F 2.9 °F 30.46 in NW 6.0 mph 8.0 mph 54% 0.00 in 0 W/m2
22:28 16.6 °F 2.8 °F 30.46 in NW 6.0 mph 15.0 mph 54% 0.00 in 0 W/m2
22:33 16.5 °F 2.7 °F 30.46 in WNW 6.0 mph 8.0 mph 54% 0.00 in 0 W/m2
22:40 16.5 °F 2.3 °F 30.47 in NW 6.0 mph 6.0 mph 53% 0.00 in 0 W/m2
22:45 16.5 °F 3.1 °F 30.47 in NW 6.0 mph 9.0 mph 55% 0.00 in 0 W/m2
22:52 16.5 °F 3.9 °F 30.47 in NW 6.0 mph 6.0 mph 57% 0.00 in 0 W/m2
22:58 16.4 °F 3.0 °F 30.47 in NW 4.0 mph 12.0 mph 55% 0.00 in 0 W/m2
23:03 16.4 °F 3.0 °F 30.47 in NNW 5.0 mph 9.0 mph 55% 0.00 in 0 W/m2
23:09 16.2 °F 4.0 °F 30.47 in WNW 6.0 mph 6.0 mph 58% 0.00 in 0 W/m2
23:16 16.3 °F 3.7 °F 30.47 in NW 6.0 mph 6.0 mph 57% 0.00 in 0 W/m2
23:22 16.2 °F 3.2 °F 30.47 in NNW 4.0 mph 6.0 mph 56% 0.00 in 0 W/m2
23:28 16.1 °F 2.7 °F 30.47 in NW 5.0 mph 9.0 mph 55% 0.00 in 0 W/m2
23:33 16.1 °F 2.4 °F 30.47 in NW 5.0 mph 12.0 mph 54% 0.00 in 0 W/m2
23:40 16.0 °F 2.3 °F 30.47 in NW 4.0 mph 4.0 mph 54% 0.00 in 0 W/m2
23:45 15.9 °F 2.2 °F 30.47 in NW 4.0 mph 4.0 mph 54% 0.00 in 0 W/m2
23:52 15.9 °F 1.4 °F 30.47 in NNW 5.0 mph 5.0 mph 52% 0.00 in 0 W/m2
23:58 15.9 °F 0.9 °F 30.47 in WNW 5.0 mph 6.0 mph 51% 0.00 in 0 W/m2
Country Meadow, Clay, NY, USA
Compliments of Weather Underground - 2 mb